Time;durP1;ratioP1;P1;durP2;ratioP2;P2;SDS_P1;SDS_P2;PMS_P1;PMS_P2;Temp;Humidity;BMP_temperature;BMP_pressure;BME280_temperature;BME280_humidity;BME280_pressure;Samples;Min_cycle;Max_cycle;Signal;HPM_P1;HPM_P2
2020/12/12 00:00:22;;;;;;;20.23;11.32;;;1.40;99.90;;;;;;4733399;30;20052;-77
2020/12/12 00:02:49;;;;;;;20.85;12.80;;;1.40;99.90;;;;;;4732679;30;20143;-78
2020/12/12 00:05:15;;;;;;;19.52;12.63;;;1.40;99.90;;;;;;4732767;30;20510;-78
2020/12/12 00:07:42;;;;;;;20.30;12.65;;;1.40;99.90;;;;;;4731517;30;20151;-78
2020/12/12 00:10:13;;;;;;;23.65;13.85;;;1.40;99.90;;;;;;4732641;30;20054;-77
2020/12/12 00:12:41;;;;;;;19.10;12.18;;;1.40;99.90;;;;;;4732925;30;20079;-79
2020/12/12 00:15:07;;;;;;;17.35;10.90;;;1.40;99.90;;;;;;4735797;30;20147;-78
2020/12/12 00:17:33;;;;;;;20.85;12.13;;;1.40;99.90;;;;;;4750539;30;20056;-78
2020/12/12 00:20:04;;;;;;;19.92;12.23;;;1.40;99.90;;;;;;4735078;30;20059;-78
2020/12/12 00:22:36;;;;;;;28.45;14.55;;;1.40;99.90;;;;;;4750100;30;20047;-77
2020/12/12 00:25:09;;;;;;;67.95;31.95;;;1.40;99.90;;;;;;4749856;30;20048;-78
2020/12/12 00:27:35;;;;;;;43.13;21.13;;;1.40;99.90;;;;;;4736655;30;20482;-78
2020/12/12 00:30:04;;;;;;;39.90;21.35;;;1.40;99.90;;;;;;4735755;30;20139;-78
2020/12/12 00:32:30;;;;;;;42.33;22.60;;;1.40;99.90;;;;;;4735540;30;20503;-78
2020/12/12 00:34:57;;;;;;;37.28;18.98;;;1.40;99.90;;;;;;4735641;30;20052;-77
2020/12/12 00:37:23;;;;;;;28.75;16.10;;;1.40;99.90;;;;;;4742160;30;20048;-78
2020/12/12 00:39:50;;;;;;;30.23;17.20;;;1.40;99.90;;;;;;4764355;30;20048;-79
2020/12/12 00:42:16;;;;;;;26.75;15.60;;;1.40;99.90;;;;;;4756472;30;20048;-78
2020/12/12 00:44:47;;;;;;;23.90;13.93;;;1.40;99.90;;;;;;4768336;30;20048;-79
2020/12/12 00:47:18;;;;;;;25.90;14.50;;;1.40;99.90;;;;;;4769270;30;20051;-78
2020/12/12 00:49:45;;;;;;;18.63;12.77;;;1.40;99.90;;;;;;4748680;30;20049;-79
2020/12/12 00:52:11;;;;;;;16.15;11.07;;;1.40;99.90;;;;;;4756165;30;20048;-79
2020/12/12 00:54:38;;;;;;;19.63;11.88;;;1.40;99.90;;;;;;4741780;30;20048;-79
2020/12/12 00:57:08;;;;;;;20.58;12.35;;;1.50;99.90;;;;;;4752944;30;20121;-79
2020/12/12 00:59:34;;;;;;;22.67;12.48;;;1.40;99.90;;;;;;4754375;30;20079;-79
2020/12/12 01:02:00;;;;;;;16.70;10.82;;;1.40;99.90;;;;;;4769536;30;20052;-79
2020/12/12 01:04:32;;;;;;;18.98;10.68;;;1.40;99.90;;;;;;4769621;30;20059;-79
2020/12/12 01:06:58;;;;;;;14.32;10.07;;;1.40;99.90;;;;;;4769525;30;20409;-79
2020/12/12 01:09:29;;;;;;;14.23;8.80;;;1.40;99.90;;;;;;4754380;30;20047;-79
2020/12/12 01:12:00;;;;;;;16.98;10.50;;;1.40;99.90;;;;;;4740854;30;20044;-79
2020/12/12 01:14:27;;;;;;;18.23;11.50;;;1.40;99.90;;;;;;4768827;30;20115;-78
2020/12/12 01:16:53;;;;;;;16.92;10.43;;;1.40;99.90;;;;;;4768647;30;20159;-79
2020/12/12 01:19:19;;;;;;;15.48;10.45;;;1.40;99.90;;;;;;4768574;30;20075;-79
2020/12/12 01:21:45;;;;;;;19.10;11.63;;;1.40;99.90;;;;;;4768694;30;20150;-79
2020/12/12 01:24:16;;;;;;;14.95;10.00;;;1.40;99.90;;;;;;4754030;30;20420;-78
2020/12/12 01:26:46;;;;;;;16.13;10.70;;;1.40;99.90;;;;;;4754039;30;20062;-79
2020/12/12 01:29:13;;;;;;;19.10;11.25;;;1.40;99.90;;;;;;4753399;30;20546;-78
2020/12/12 01:31:48;;;;;;;18.88;11.02;;;1.40;99.90;;;;;;4754239;30;20044;-78
2020/12/12 01:34:19;;;;;;;18.55;10.60;;;1.40;99.90;;;;;;4768029;30;20052;-78
2020/12/12 01:36:49;;;;;;;18.75;10.45;;;1.40;99.90;;;;;;4753990;30;20424;-78
2020/12/12 01:39:20;;;;;;;19.33;11.23;;;1.40;99.90;;;;;;4767534;30;20062;-78
2020/12/12 01:41:54;;;;;;;23.27;15.15;;;1.40;99.90;;;;;;4753990;30;20147;-79
2020/12/12 01:44:25;;;;;;;17.70;11.75;;;1.40;99.90;;;;;;4754257;30;20048;-78
2020/12/12 01:46:53;;;;;;;19.40;11.90;;;1.40;99.90;;;;;;4753806;30;20512;-79
2020/12/12 01:49:19;;;;;;;15.55;10.32;;;1.40;99.90;;;;;;4753543;30;20051;-79
2020/12/12 01:51:51;;;;;;;17.05;10.55;;;1.40;99.90;;;;;;4767686;30;20051;-78
2020/12/12 01:54:18;;;;;;;16.73;10.30;;;1.40;99.90;;;;;;4769824;30;20580;-78
2020/12/12 01:56:49;;;;;;;18.40;10.88;;;1.40;99.90;;;;;;4768751;30;20134;-79
2020/12/12 01:59:15;;;;;;;17.85;11.30;;;1.40;99.90;;;;;;4752497;30;20058;-79
2020/12/12 02:01:45;;;;;;;20.02;11.65;;;1.40;99.90;;;;;;4767942;30;20090;-79
2020/12/12 02:04:16;;;;;;;17.83;10.82;;;1.30;99.90;;;;;;4753035;30;20483;-79
2020/12/12 02:06:43;;;;;;;20.83;12.25;;;1.30;99.90;;;;;;4738416;30;20158;-78
2020/12/12 02:09:13;;;;;;;20.30;13.20;;;1.30;99.90;;;;;;4752181;30;20512;-78
2020/12/12 02:11:40;;;;;;;20.98;13.18;;;1.30;99.90;;;;;;4753189;30;20155;-78
2020/12/12 02:14:11;;;;;;;27.85;15.40;;;1.30;99.90;;;;;;4752756;30;20062;-78
2020/12/12 02:16:55;;;;;;;21.33;11.52;;;1.30;99.90;;;;;;4752720;30;20487;-78
2020/12/12 02:19:26;;;;;;;17.15;10.32;;;1.20;99.90;;;;;;4766848;30;20074;-78
2020/12/12 02:21:59;;;;;;;17.98;10.70;;;1.20;99.90;;;;;;4752968;30;20055;-78
2020/12/12 02:24:33;;;;;;;18.02;11.25;;;1.20;99.90;;;;;;4762102;30;20147;-78
2020/12/12 02:27:05;;;;;;;14.60;9.27;;;1.10;99.90;;;;;;4768019;30;20150;-78
2020/12/12 02:29:50;;;;;;;17.45;11.13;;;1.10;99.90;;;;;;4752631;30;20135;-79
2020/12/12 02:32:16;;;;;;;16.48;10.35;;;1.10;99.90;;;;;;4768202;30;20159;-78
2020/12/12 02:34:48;;;;;;;15.30;9.90;;;1.10;99.90;;;;;;4766725;30;20058;-79
2020/12/12 02:37:14;;;;;;;14.35;9.20;;;1.10;99.90;;;;;;4767085;30;20117;-78
2020/12/12 02:39:40;;;;;;;15.63;9.93;;;1.10;99.90;;;;;;4751782;30;20061;-78
2020/12/12 02:42:06;;;;;;;18.23;10.32;;;1.20;99.90;;;;;;4752337;30;20056;-79
2020/12/12 02:44:33;;;;;;;16.67;10.43;;;1.20;99.90;;;;;;4767288;30;20083;-78
2020/12/12 02:46:59;;;;;;;16.77;10.77;;;1.20;99.90;;;;;;4752127;30;20171;-79
2020/12/12 02:49:25;;;;;;;14.73;10.05;;;1.20;99.90;;;;;;4751872;30;20044;-78
2020/12/12 02:51:56;;;;;;;17.00;10.35;;;1.20;99.90;;;;;;4753045;30;20064;-79
2020/12/12 02:54:23;;;;;;;14.98;9.88;;;1.20;99.90;;;;;;4768415;30;20079;-79
2020/12/12 02:56:49;;;;;;;15.40;10.25;;;1.20;99.90;;;;;;4752758;30;20138;-78
2020/12/12 02:59:15;;;;;;;15.63;10.20;;;1.20;99.90;;;;;;4752203;30;20083;-78
2020/12/12 03:01:41;;;;;;;14.90;9.23;;;1.30;99.90;;;;;;4767632;30;20189;-78
2020/12/12 03:04:09;;;;;;;17.30;10.40;;;1.30;99.90;;;;;;4752879;30;20141;-79
2020/12/12 03:06:36;;;;;;;16.00;10.57;;;1.30;99.90;;;;;;4752751;30;20154;-78
2020/12/12 03:09:08;;;;;;;19.00;10.87;;;1.30;99.90;;;;;;4766954;30;20151;-78
2020/12/12 03:11:34;;;;;;;16.02;10.93;;;1.30;99.90;;;;;;4753217;30;20325;-78
2020/12/12 03:14:05;;;;;;;17.45;10.90;;;1.30;99.90;;;;;;4767111;30;20058;-78
2020/12/12 03:16:36;;;;;;;16.60;10.32;;;1.30;99.90;;;;;;4753613;30;20043;-78
2020/12/12 03:19:08;;;;;;;18.63;11.30;;;1.30;99.90;;;;;;4766461;30;20139;-78
2020/12/12 03:21:34;;;;;;;15.98;10.88;;;1.30;99.90;;;;;;4752401;30;20055;-78
2020/12/12 03:24:05;;;;;;;20.20;11.63;;;1.30;99.90;;;;;;4767365;30;20091;-78
2020/12/12 03:26:31;;;;;;;16.67;9.93;;;1.30;99.90;;;;;;4752605;30;20083;-78
2020/12/12 03:28:58;;;;;;;17.75;12.15;;;1.30;99.90;;;;;;4766441;30;20085;-78
2020/12/12 03:31:24;;;;;;;19.33;11.75;;;1.30;99.90;;;;;;4767141;30;20146;-78
2020/12/12 03:33:50;;;;;;;15.32;10.68;;;1.30;99.90;;;;;;4766978;30;20146;-78
2020/12/12 03:36:17;;;;;;;19.35;10.70;;;1.30;99.90;;;;;;4752386;30;20524;-78
2020/12/12 03:38:48;;;;;;;15.07;9.15;;;1.30;99.90;;;;;;4765544;30;20479;-78
2020/12/12 03:41:14;;;;;;;16.67;10.35;;;1.20;99.90;;;;;;4752250;30;20162;-78
2020/12/12 03:43:40;;;;;;;18.25;11.27;;;1.20;99.90;;;;;;4752710;30;20139;-78
2020/12/12 03:46:12;;;;;;;16.13;10.07;;;1.20;99.90;;;;;;4766642;30;20047;-78
2020/12/12 03:48:43;;;;;;;15.55;10.70;;;1.10;99.90;;;;;;4770559;30;20508;-78
2020/12/12 03:51:14;;;;;;;20.15;11.88;;;1.10;99.90;;;;;;4755748;30;20083;-78
2020/12/12 03:53:41;;;;;;;18.33;11.35;;;1.10;99.90;;;;;;4770474;30;20052;-78
2020/12/12 03:56:14;;;;;;;17.80;11.18;;;1.00;99.90;;;;;;4742101;30;20063;-78
2020/12/12 03:58:40;;;;;;;16.08;10.55;;;1.00;99.90;;;;;;4755079;30;20087;-78
2020/12/12 04:01:07;;;;;;;13.93;10.07;;;1.00;99.90;;;;;;4770232;30;20052;-78
2020/12/12 04:03:33;;;;;;;16.95;9.60;;;1.00;99.90;;;;;;4755683;30;20115;-78
2020/12/12 04:05:59;;;;;;;15.65;10.30;;;0.90;99.90;;;;;;4755774;30;20429;-78
2020/12/12 04:08:25;;;;;;;15.38;10.38;;;0.90;99.90;;;;;;4755001;30;20043;-78
2020/12/12 04:10:52;;;;;;;14.63;9.73;;;0.80;99.90;;;;;;4755370;30;20214;-78
2020/12/12 04:13:18;;;;;;;13.68;9.10;;;0.80;99.90;;;;;;4771553;30;20115;-78
2020/12/12 04:15:49;;;;;;;14.45;8.98;;;0.80;99.90;;;;;;4755278;30;20048;-79
2020/12/12 04:18:15;;;;;;;16.98;10.73;;;0.80;99.90;;;;;;4769360;30;20153;-78
2020/12/12 04:20:47;;;;;;;14.48;9.82;;;0.80;99.90;;;;;;4755588;30;20051;-78
2020/12/12 04:23:14;;;;;;;15.18;9.23;;;0.80;99.90;;;;;;4755711;30;20083;-78
2020/12/12 04:25:45;;;;;;;14.88;9.60;;;0.80;99.90;;;;;;4755271;30;20062;-78
2020/12/12 04:28:11;;;;;;;14.32;9.68;;;0.80;99.90;;;;;;4768907;30;20084;-78
2020/12/12 04:30:37;;;;;;;15.60;9.95;;;0.80;99.90;;;;;;4755383;30;20138;-78
2020/12/12 04:33:04;;;;;;;16.60;10.35;;;0.70;99.90;;;;;;4754749;30;20151;-78
2020/12/12 04:35:35;;;;;;;12.23;9.43;;;0.70;99.90;;;;;;4755040;30;20048;-78
2020/12/12 04:38:06;;;;;;;16.70;9.60;;;0.70;99.90;;;;;;4754287;30;20140;-79
2020/12/12 04:40:34;;;;;;;14.10;8.80;;;0.70;99.90;;;;;;4754524;30;20051;-78
2020/12/12 04:43:06;;;;;;;15.23;9.43;;;0.70;99.90;;;;;;4754429;30;20094;-78
2020/12/12 04:45:38;;;;;;;15.07;9.73;;;0.70;99.90;;;;;;4754531;30;20050;-79
2020/12/12 04:48:05;;;;;;;13.90;9.98;;;0.60;99.90;;;;;;4754324;30;20077;-79
2020/12/12 04:50:31;;;;;;;15.57;9.88;;;0.60;99.90;;;;;;4754343;30;20062;-78
2020/12/12 04:53:15;;;;;;;17.08;11.98;;;0.60;99.90;;;;;;4754253;30;20146;-78
2020/12/12 04:55:47;;;;;;;16.08;10.25;;;0.60;99.90;;;;;;4754443;30;20055;-78
2020/12/12 04:58:20;;;;;;;16.92;9.73;;;0.50;99.90;;;;;;4754024;30;20065;-79
2020/12/12 05:00:48;;;;;;;13.70;9.05;;;0.50;99.90;;;;;;4768280;30;20591;-78
2020/12/12 05:03:17;;;;;;;16.98;10.05;;;0.50;99.90;;;;;;4753875;30;20147;-78
2020/12/12 05:05:45;;;;;;;15.02;9.35;;;0.40;99.90;;;;;;4753829;30;20082;-78
2020/12/12 05:08:12;;;;;;;17.50;10.73;;;0.40;99.90;;;;;;4768094;30;20135;-79
2020/12/12 05:10:46;;;;;;;16.67;9.70;;;0.30;99.90;;;;;;4753960;30;20079;-79
2020/12/12 05:13:23;;;;;;;17.83;10.63;;;0.20;99.90;;;;;;4753715;30;20151;-78
2020/12/12 05:15:56;;;;;;;13.80;9.68;;;0.30;99.90;;;;;;4768856;30;20056;-78
2020/12/12 05:18:23;;;;;;;15.93;9.32;;;0.30;99.90;;;;;;4753310;30;20150;-78
2020/12/12 05:20:50;;;;;;;14.68;9.98;;;0.30;99.90;;;;;;4753723;30;20154;-78
2020/12/12 05:23:16;;;;;;;15.68;10.93;;;0.40;99.90;;;;;;4753737;30;20124;-78
2020/12/12 05:25:49;;;;;;;14.45;9.68;;;0.40;99.90;;;;;;4767838;30;20052;-78
2020/12/12 05:28:17;;;;;;;15.63;10.07;;;0.50;99.90;;;;;;4752846;30;20055;-78
2020/12/12 05:30:45;;;;;;;17.77;10.82;;;0.50;99.90;;;;;;4753477;30;20147;-78
2020/12/12 05:33:23;;;;;;;14.90;10.15;;;0.50;99.90;;;;;;4753398;30;20062;-79
2020/12/12 05:35:54;;;;;;;15.88;10.43;;;0.50;99.90;;;;;;4753566;30;20142;-78
2020/12/12 05:38:25;;;;;;;19.77;11.85;;;0.50;99.90;;;;;;4767809;30;20068;-78
2020/12/12 05:40:57;;;;;;;16.63;11.07;;;0.50;99.90;;;;;;4767121;30;20168;-77
2020/12/12 05:43:36;;;;;;;15.68;10.60;;;0.40;99.90;;;;;;4767993;30;20047;-78
2020/12/12 05:46:03;;;;;;;17.65;10.85;;;0.40;99.90;;;;;;4753219;30;20143;-78
2020/12/12 05:48:29;;;;;;;16.50;10.60;;;0.40;99.90;;;;;;4752285;30;20052;-78
2020/12/12 05:50:56;;;;;;;16.17;9.50;;;0.50;99.90;;;;;;4752975;30;20148;-78
2020/12/12 05:53:29;;;;;;;14.75;9.52;;;0.50;99.90;;;;;;4767567;30;20048;-78
2020/12/12 05:55:56;;;;;;;14.80;10.02;;;0.50;99.90;;;;;;4752731;30;20086;-78
2020/12/12 05:58:27;;;;;;;14.88;10.27;;;0.60;99.90;;;;;;4767326;30;20116;-79
2020/12/12 06:01:00;;;;;;;13.93;9.63;;;0.60;99.90;;;;;;4737271;30;20491;-78
2020/12/12 06:03:30;;;;;;;14.00;9.43;;;0.60;99.90;;;;;;4751787;30;20147;-78
2020/12/12 06:06:06;;;;;;;17.85;10.82;;;0.60;99.90;;;;;;4766836;30;20143;-79
2020/12/12 06:08:38;;;;;;;16.23;9.80;;;0.70;99.90;;;;;;4751532;30;20048;-78
2020/12/12 06:11:09;;;;;;;15.52;10.27;;;0.70;99.90;;;;;;4751320;30;20060;-78
2020/12/12 06:13:36;;;;;;;15.93;11.43;;;0.80;99.90;;;;;;4751615;30;20139;-79
2020/12/12 06:16:08;;;;;;;16.73;10.60;;;0.80;99.90;;;;;;4751697;30;20043;-78
2020/12/12 06:18:52;;;;;;;18.27;11.15;;;0.80;99.90;;;;;;4764826;30;20070;-79
2020/12/12 06:21:23;;;;;;;14.77;9.85;;;0.80;99.90;;;;;;4761368;30;20052;-79
2020/12/12 06:23:49;;;;;;;13.90;10.15;;;0.70;99.90;;;;;;4750588;30;20062;-79
2020/12/12 06:26:20;;;;;;;19.27;11.15;;;0.70;99.90;;;;;;4751370;30;20150;-78
2020/12/12 06:28:54;;;;;;;20.00;10.55;;;0.80;99.90;;;;;;4765291;30;20508;-78
2020/12/12 06:31:26;;;;;;;18.42;11.45;;;0.80;99.90;;;;;;4737743;30;20044;-78
2020/12/12 06:33:54;;;;;;;17.95;11.60;;;0.80;99.90;;;;;;4752130;30;20055;-78
2020/12/12 06:36:32;;;;;;;17.67;11.65;;;0.80;99.90;;;;;;4766218;30;20143;-78
2020/12/12 06:39:24;;;;;;;17.60;10.60;;;0.70;99.90;;;;;;4751529;30;20058;-79
2020/12/12 06:41:58;;;;;;;17.98;11.60;;;0.70;99.90;;;;;;4751659;30;20142;-78
2020/12/12 06:44:38;;;;;;;18.27;10.88;;;0.70;99.90;;;;;;4751996;30;20094;-78
2020/12/12 06:47:09;;;;;;;18.52;10.98;;;0.70;99.90;;;;;;4765646;30;20107;-78
2020/12/12 06:49:42;;;;;;;18.58;10.95;;;0.70;99.90;;;;;;4751107;30;20583;-78
2020/12/12 06:52:08;;;;;;;21.13;12.88;;;0.70;99.90;;;;;;4766019;30;20581;-78
2020/12/12 06:54:35;;;;;;;23.45;13.65;;;0.70;99.90;;;;;;4766833;30;20147;-78
2020/12/12 06:57:27;;;;;;;20.23;11.05;;;0.70;99.90;;;;;;4765577;30;20146;-79
2020/12/12 06:59:59;;;;;;;18.40;11.45;;;0.70;99.90;;;;;;4751129;30;20423;-78
2020/12/12 07:02:30;;;;;;;17.38;11.50;;;0.60;99.90;;;;;;4751003;30;20056;-78
2020/12/12 07:05:17;;;;;;;18.48;11.15;;;0.60;99.90;;;;;;4765827;30;20051;-78
2020/12/12 07:07:49;;;;;;;19.65;11.85;;;0.60;99.90;;;;;;4751863;30;20052;-78
2020/12/12 07:10:20;;;;;;;16.75;11.07;;;0.60;99.90;;;;;;4765690;30;20056;-78
2020/12/12 07:12:51;;;;;;;24.25;14.20;;;0.60;99.90;;;;;;4767348;30;20518;-78
2020/12/12 07:15:18;;;;;;;52.50;24.67;;;0.50;99.90;;;;;;4753058;30;20051;-80
2020/12/12 07:17:44;;;;;;;24.40;13.48;;;0.70;99.90;;;;;;4766716;30;20151;-78
2020/12/12 07:20:16;;;;;;;20.17;11.25;;;0.70;99.90;;;;;;4752325;30;20052;-78
2020/12/12 07:22:42;;;;;;;18.15;11.10;;;0.80;99.90;;;;;;4760028;30;20788;-76
2020/12/12 07:25:08;;;;;;;18.50;11.20;;;0.80;99.90;;;;;;4750497;30;20062;-77
2020/12/12 07:27:39;;;;;;;22.70;13.70;;;0.90;99.90;;;;;;4755525;30;20566;-76
2020/12/12 07:30:06;;;;;;;35.20;17.70;;;0.90;99.90;;;;;;4751649;30;20063;-77
2020/12/12 07:32:32;;;;;;;30.50;17.63;;;0.90;99.90;;;;;;4735955;30;20086;-78
2020/12/12 07:35:03;;;;;;;22.90;14.48;;;0.90;99.90;;;;;;4751590;30;20505;-78
2020/12/12 07:37:36;;;;;;;19.02;11.82;;;0.90;99.90;;;;;;4751208;30;20054;-77
2020/12/12 07:40:03;;;;;;;17.50;11.40;;;1.00;99.90;;;;;;4737233;30;20137;-77
2020/12/12 07:42:34;;;;;;;15.77;10.85;;;1.00;99.90;;;;;;4737684;30;20138;-77
2020/12/12 07:45:18;;;;;;;19.17;10.77;;;1.00;99.90;;;;;;4751925;30;20052;-77
2020/12/12 07:47:44;;;;;;;14.85;9.95;;;1.00;99.90;;;;;;4737066;30;20467;-77
2020/12/12 07:50:16;;;;;;;14.35;10.00;;;1.00;99.90;;;;;;4735094;30;20047;-77
2020/12/12 07:52:43;;;;;;;16.10;9.68;;;1.00;99.90;;;;;;4738030;30;20059;-76
2020/12/12 07:55:20;;;;;;;12.60;8.63;;;1.00;99.90;;;;;;4723708;30;20079;-77
2020/12/12 07:57:56;;;;;;;18.42;11.93;;;1.00;99.90;;;;;;4737029;30;20048;-78
2020/12/12 08:00:27;;;;;;;17.95;11.30;;;1.10;99.90;;;;;;4738919;30;20162;-79
2020/12/12 08:02:58;;;;;;;33.40;19.52;;;1.20;99.90;;;;;;4740266;30;20062;-77
2020/12/12 08:05:29;;;;;;;41.95;23.88;;;1.50;99.90;;;;;;4753806;30;20131;-77
2020/12/12 08:07:56;;;;;;;37.10;21.15;;;1.50;99.90;;;;;;4753092;30;20083;-77
2020/12/12 08:10:22;;;;;;;28.05;16.42;;;1.50;99.90;;;;;;4739371;30;20056;-77
2020/12/12 08:12:53;;;;;;;19.95;13.32;;;1.50;99.90;;;;;;4753746;30;20052;-77
2020/12/12 08:15:24;;;;;;;18.20;10.57;;;1.50;99.90;;;;;;4739536;30;20499;-77
2020/12/12 08:17:50;;;;;;;15.60;9.50;;;1.50;99.90;;;;;;4739109;30;20130;-77
2020/12/12 08:20:24;;;;;;;16.58;10.48;;;1.50;99.90;;;;;;4753983;30;20150;-77
2020/12/12 08:22:51;;;;;;;16.50;11.35;;;1.50;99.90;;;;;;4739619;30;20072;-77
2020/12/12 08:25:20;;;;;;;18.98;12.27;;;1.40;99.90;;;;;;4734972;30;20132;-77
2020/12/12 08:27:47;;;;;;;19.40;12.10;;;1.50;99.90;;;;;;4735572;30;20084;-77
2020/12/12 08:30:14;;;;;;;25.67;14.75;;;1.50;99.90;;;;;;4750568;30;20474;-77
2020/12/12 08:32:42;;;;;;;23.38;15.40;;;1.50;99.90;;;;;;4735954;30;20087;-77
2020/12/12 08:35:25;;;;;;;24.08;14.82;;;1.50;99.90;;;;;;4750274;30;20458;-77
2020/12/12 08:38:04;;;;;;;23.30;13.25;;;1.50;99.90;;;;;;4750949;30;20053;-77
2020/12/12 08:40:42;;;;;;;21.00;13.05;;;1.60;99.90;;;;;;4750342;30;20091;-77
2020/12/12 08:43:11;;;;;;;23.45;14.05;;;1.60;99.90;;;;;;4749757;30;20143;-77
2020/12/12 08:45:39;;;;;;;20.23;11.35;;;1.60;99.90;;;;;;4734412;30;20156;-77
2020/12/12 08:48:15;;;;;;;16.13;10.55;;;1.60;99.90;;;;;;4748835;30;20151;-77
2020/12/12 08:50:52;;;;;;;15.73;10.43;;;1.70;99.90;;;;;;4719633;30;20136;-77
2020/12/12 08:53:38;;;;;;;15.55;10.23;;;1.70;99.90;;;;;;4719607;30;20514;-77
2020/12/12 08:56:06;;;;;;;15.63;9.32;;;1.70;99.90;;;;;;4748820;30;20080;-77
2020/12/12 08:58:51;;;;;;;21.00;15.20;;;1.70;99.90;;;;;;4719640;30;20139;-77
2020/12/12 09:01:39;;;;;;;19.25;13.45;;;1.70;99.90;;;;;;4734218;30;20147;-77
2020/12/12 09:04:12;;;;;;;14.80;11.93;;;1.70;99.90;;;;;;4703055;30;20083;-77
2020/12/12 09:06:41;;;;;;;13.90;9.50;;;1.70;99.90;;;;;;4733774;30;20143;-77
2020/12/12 09:09:26;;;;;;;14.02;8.40;;;1.70;99.90;;;;;;4732941;30;20139;-79
2020/12/12 09:12:03;;;;;;;15.18;9.95;;;1.70;99.90;;;;;;4717204;30;20155;-77
2020/12/12 09:14:37;;;;;;;17.67;11.23;;;1.70;99.90;;;;;;4732837;30;20223;-77
2020/12/12 09:17:08;;;;;;;21.58;15.05;;;1.80;99.90;;;;;;4718210;30;20156;-77
2020/12/12 09:19:35;;;;;;;25.95;16.02;;;1.80;99.90;;;;;;4731395;30;20295;-77
2020/12/12 09:22:05;;;;;;;25.08;16.27;;;1.90;99.90;;;;;;4710632;30;20070;-77
2020/12/12 09:24:32;;;;;;;24.85;15.45;;;2.00;99.90;;;;;;4732102;30;20135;-77
2020/12/12 09:27:03;;;;;;;22.20;15.32;;;2.00;99.90;;;;;;4717432;30;20059;-77
2020/12/12 09:29:30;;;;;;;22.92;16.60;;;2.10;99.90;;;;;;4745712;30;20048;-77
2020/12/12 09:32:01;;;;;;;54.83;27.48;;;2.10;99.90;;;;;;4748351;30;20049;-77
2020/12/12 09:34:27;;;;;;;61.17;28.48;;;2.20;99.90;;;;;;4747561;30;20143;-77
2020/12/12 09:36:58;;;;;;;26.08;14.05;;;2.20;99.90;;;;;;4746861;30;20053;-76
2020/12/12 09:39:25;;;;;;;15.82;10.98;;;2.20;99.90;;;;;;4716716;30;20048;-77
2020/12/12 09:41:57;;;;;;;13.25;9.18;;;2.20;99.90;;;;;;4746001;30;20071;-78
2020/12/12 09:44:24;;;;;;;15.85;10.07;;;2.30;99.90;;;;;;4716776;30;20083;-75
2020/12/12 09:46:50;;;;;;;14.77;8.82;;;2.30;99.90;;;;;;4746340;30;20048;-77
2020/12/12 09:49:17;;;;;;;14.70;9.93;;;2.50;99.90;;;;;;4716473;30;20061;-77
2020/12/12 09:51:48;;;;;;;16.83;11.55;;;2.50;99.90;;;;;;4733356;30;20052;-77
2020/12/12 09:54:20;;;;;;;17.50;11.25;;;2.50;99.90;;;;;;4746837;30;20041;-77
2020/12/12 09:56:49;;;;;;;14.25;10.25;;;2.50;99.90;;;;;;4746675;30;20052;-77
2020/12/12 09:59:20;;;;;;;17.25;10.73;;;2.50;99.90;;;;;;4745631;30;20048;-77
2020/12/12 10:01:51;;;;;;;18.45;11.30;;;2.50;99.90;;;;;;4718282;30;20063;-80
2020/12/12 10:04:23;;;;;;;17.30;11.80;;;2.50;99.90;;;;;;4718234;30;20045;-77
2020/12/12 10:06:54;;;;;;;17.75;12.40;;;2.40;99.90;;;;;;4731758;30;20087;-77
2020/12/12 10:09:21;;;;;;;24.35;15.45;;;2.40;99.90;;;;;;4731280;30;20506;-78
2020/12/12 10:11:50;;;;;;;21.88;13.57;;;2.40;99.90;;;;;;4732392;30;20115;-77
2020/12/12 10:14:16;;;;;;;22.58;13.68;;;2.30;99.90;;;;;;4718244;30;20126;-77
2020/12/12 10:16:42;;;;;;;21.70;13.80;;;2.30;99.90;;;;;;4718354;30;20052;-77
2020/12/12 10:19:09;;;;;;;18.50;13.85;;;2.30;99.90;;;;;;4734673;30;20539;-78
2020/12/12 10:21:35;;;;;;;20.33;13.25;;;2.30;99.90;;;;;;4735860;30;20143;-77
2020/12/12 10:24:01;;;;;;;19.27;12.60;;;2.40;99.90;;;;;;4735282;30;20056;-77
2020/12/12 10:26:28;;;;;;;24.05;14.50;;;2.40;99.90;;;;;;4733253;30;20060;-77
2020/12/12 10:28:54;;;;;;;19.23;12.60;;;2.50;99.90;;;;;;4746632;30;20051;-77
2020/12/12 10:31:26;;;;;;;16.13;10.70;;;2.50;99.90;;;;;;4733931;30;20143;-77
2020/12/12 10:33:53;;;;;;;14.57;9.05;;;2.50;99.90;;;;;;4750436;30;20574;-78
2020/12/12 10:36:20;;;;;;;13.52;8.85;;;2.70;99.90;;;;;;4724998;30;20581;-78
2020/12/12 10:38:47;;;;;;;13.20;8.23;;;2.70;99.90;;;;;;4738484;30;20051;-78
2020/12/12 10:41:14;;;;;;;8.80;6.07;;;2.80;99.90;;;;;;4739017;30;20156;-81
2020/12/12 10:43:41;;;;;;;7.72;5.07;;;3.00;99.90;;;;;;4740493;30;20469;-79
2020/12/12 10:46:09;;;;;;;10.95;5.93;;;3.10;99.90;;;;;;4758362;30;20498;-81
2020/12/12 10:48:37;;;;;;;14.82;8.15;;;3.10;99.90;;;;;;4750849;30;20048;-73
2020/12/12 10:51:08;;;;;;;7.63;6.22;;;3.30;99.90;;;;;;4747703;30;20127;-70
2020/12/12 10:53:35;;;;;;;10.05;6.93;;;3.60;99.90;;;;;;4748482;30;20052;-74
2020/12/12 10:56:06;;;;;;;9.35;5.22;;;3.90;99.90;;;;;;4745647;30;20148;-73
2020/12/12 10:58:33;;;;;;;5.25;4.05;;;4.10;99.90;;;;;;4745841;30;20113;-74
2020/12/12 11:01:00;;;;;;;6.88;3.90;;;4.30;99.90;;;;;;4755667;30;20082;-81
2020/12/12 11:03:28;;;;;;;8.70;4.55;;;4.30;99.90;;;;;;4752475;30;20060;-78
2020/12/12 11:05:55;;;;;;;6.82;3.65;;;4.30;99.90;;;;;;4733575;30;20055;-76
2020/12/12 11:08:28;;;;;;;5.03;4.20;;;4.20;99.90;;;;;;4747619;30;20121;-77
2020/12/12 11:10:56;;;;;;;5.13;3.55;;;4.20;99.90;;;;;;4747716;30;20044;-77
2020/12/12 11:13:25;;;;;;;8.05;3.80;;;4.10;99.90;;;;;;4747893;30;20056;-77
2020/12/12 11:15:52;;;;;;;6.93;4.78;;;4.00;99.90;;;;;;4731251;30;20048;-79
2020/12/12 11:18:19;;;;;;;4.25;3.70;;;4.00;99.90;;;;;;4747153;30;20052;-78
2020/12/12 11:20:51;;;;;;;6.95;4.18;;;3.90;99.90;;;;;;4719536;30;20056;-79
2020/12/12 11:23:19;;;;;;;8.15;4.88;;;3.90;99.90;;;;;;4731982;30;20060;-78
2020/12/12 11:25:51;;;;;;;6.43;4.50;;;3.80;99.90;;;;;;4719731;30;20056;-79
2020/12/12 11:28:17;;;;;;;8.32;4.30;;;3.80;99.90;;;;;;4716523;30;20060;-79
2020/12/12 11:30:49;;;;;;;4.80;3.28;;;3.80;99.90;;;;;;4718764;30;20052;-79
2020/12/12 11:33:21;;;;;;;6.70;4.15;;;3.80;99.90;;;;;;4718502;30;20055;-79
2020/12/12 11:36:04;;;;;;;7.18;4.47;;;3.90;99.90;;;;;;4718266;30;20048;-79
2020/12/12 11:38:49;;;;;;;6.30;4.38;;;3.90;99.90;;;;;;4731926;30;20051;-79
2020/12/12 11:46:29;;;;;;;6.88;5.03;;;3.90;99.90;;;;;;4732728;30;20143;-78
2020/12/12 11:48:57;;;;;;;6.25;5.30;;;4.00;99.90;;;;;;4731658;30;20520;-78
2020/12/12 11:51:24;;;;;;;5.22;4.03;;;4.10;99.90;;;;;;4732883;30;20072;-78
2020/12/12 11:53:50;;;;;;;7.82;5.43;;;4.10;99.90;;;;;;4700718;30;20063;-78
2020/12/12 11:56:23;;;;;;;7.47;4.72;;;4.10;99.90;;;;;;4715393;30;20055;-78
2020/12/12 11:58:50;;;;;;;5.85;3.83;;;4.10;99.90;;;;;;4713981;30;20072;-78
2020/12/12 12:01:22;;;;;;;5.40;3.42;;;4.10;99.90;;;;;;4714861;30;20778;-79
2020/12/12 12:03:56;;;;;;;8.05;4.60;;;4.10;99.90;;;;;;4728886;30;20049;-78
2020/12/12 12:06:23;;;;;;;8.82;4.70;;;4.10;99.90;;;;;;4700494;30;20130;-78
2020/12/12 12:11:35;;;;;;;7.45;3.97;;;4.10;99.90;;;;;;4718597;30;20052;-79
2020/12/12 12:14:07;;;;;;;6.90;4.35;;;4.10;99.90;;;;;;4732150;30;20084;-79
2020/12/12 12:16:39;;;;;;;6.25;4.22;;;4.10;99.90;;;;;;4703341;30;20048;-78
2020/12/12 12:19:05;;;;;;;7.03;4.25;;;4.10;99.90;;;;;;4716987;30;20111;-79
2020/12/12 12:21:34;;;;;;;7.50;4.15;;;4.10;99.90;;;;;;4746136;30;20072;-78
2020/12/12 12:24:05;;;;;;;5.80;3.78;;;4.10;99.90;;;;;;4735306;30;20048;-79
2020/12/12 12:26:36;;;;;;;7.22;4.45;;;4.10;99.90;;;;;;4750276;30;20086;-75
2020/12/12 12:29:12;;;;;;;6.18;4.10;;;4.00;99.90;;;;;;4748207;30;20079;-78
2020/12/12 12:31:40;;;;;;;8.98;4.53;;;4.00;99.90;;;;;;4735234;30;20048;-78
2020/12/12 12:34:13;;;;;;;5.38;3.95;;;4.10;99.90;;;;;;4734201;30;20054;-79
2020/12/12 12:36:45;;;;;;;8.00;4.55;;;4.00;99.90;;;;;;4733585;30;20107;-79
2020/12/12 12:39:16;;;;;;;7.28;4.97;;;4.00;99.90;;;;;;4748301;30;20469;-79
2020/12/12 12:41:50;;;;;;;5.80;3.90;;;4.00;99.90;;;;;;4736259;30;20127;-79
2020/12/12 12:44:21;;;;;;;6.68;4.50;;;4.00;99.90;;;;;;4734282;30;20134;-78
2020/12/12 12:46:49;;;;;;;6.30;4.22;;;4.00;99.90;;;;;;4721553;30;20055;-79
2020/12/12 12:49:21;;;;;;;5.50;4.30;;;4.00;99.90;;;;;;4712150;30;20049;-79
2020/12/12 12:51:49;;;;;;;7.03;4.50;;;4.00;99.90;;;;;;4703748;30;20047;-79
2020/12/12 12:54:17;;;;;;;8.00;4.80;;;3.90;99.90;;;;;;4732020;30;20529;-79
2020/12/12 12:56:48;;;;;;;8.43;5.30;;;3.90;99.90;;;;;;4733296;30;20044;-79
2020/12/12 12:59:15;;;;;;;6.88;4.25;;;3.90;99.90;;;;;;4746021;30;20130;-79
2020/12/12 13:01:50;;;;;;;8.38;5.22;;;4.00;99.90;;;;;;4704157;30;20480;-72
2020/12/12 13:04:17;;;;;;;10.32;7.07;;;4.00;99.90;;;;;;4731432;30;20051;-79